sensor_id;sensor_type;location;lat;lon;timestamp;P1;durP1;ratioP1;P2;durP2;ratioP2
19599;SDS011;9947;57.722;12.012;2023-04-03T00:01:02;5.07;;;3.20;;
19599;SDS011;9947;57.722;12.012;2023-04-03T00:03:30;8.90;;;3.13;;
19599;SDS011;9947;57.722;12.012;2023-04-03T00:05:57;6.27;;;2.90;;
19599;SDS011;9947;57.722;12.012;2023-04-03T00:08:32;5.93;;;2.80;;
19599;SDS011;9947;57.722;12.012;2023-04-03T00:10:59;6.27;;;3.20;;
19599;SDS011;9947;57.722;12.012;2023-04-03T00:13:26;4.70;;;2.83;;
19599;SDS011;9947;57.722;12.012;2023-04-03T00:15:53;6.27;;;2.87;;
19599;SDS011;9947;57.722;12.012;2023-04-03T00:18:20;8.83;;;2.90;;
19599;SDS011;9947;57.722;12.012;2023-04-03T00:20:47;3.93;;;2.70;;
19599;SDS011;9947;57.722;12.012;2023-04-03T00:23:14;5.10;;;2.90;;
19599;SDS011;9947;57.722;12.012;2023-04-03T00:25:43;5.10;;;2.73;;
19599;SDS011;9947;57.722;12.012;2023-04-03T00:28:10;6.40;;;3.00;;
19599;SDS011;9947;57.722;12.012;2023-04-03T00:30:37;7.17;;;2.90;;
19599;SDS011;9947;57.722;12.012;2023-04-03T00:33:04;5.47;;;3.30;;
19599;SDS011;9947;57.722;12.012;2023-04-03T00:35:31;5.83;;;3.23;;
19599;SDS011;9947;57.722;12.012;2023-04-03T00:37:58;6.73;;;3.00;;
19599;SDS011;9947;57.722;12.012;2023-04-03T00:40:26;3.53;;;3.03;;
19599;SDS011;9947;57.722;12.012;2023-04-03T00:42:56;5.17;;;2.93;;
19599;SDS011;9947;57.722;12.012;2023-04-03T00:45:33;3.83;;;2.90;;
19599;SDS011;9947;57.722;12.012;2023-04-03T00:48:03;3.63;;;3.00;;
19599;SDS011;9947;57.722;12.012;2023-04-03T00:50:32;5.37;;;2.80;;
19599;SDS011;9947;57.722;12.012;2023-04-03T00:53:02;5.10;;;2.90;;
19599;SDS011;9947;57.722;12.012;2023-04-03T00:55:31;5.57;;;2.70;;
19599;SDS011;9947;57.722;12.012;2023-04-03T00:58:00;3.27;;;2.93;;
19599;SDS011;9947;57.722;12.012;2023-04-03T01:00:28;4.40;;;3.23;;
19599;SDS011;9947;57.722;12.012;2023-04-03T01:02:55;9.50;;;3.33;;
19599;SDS011;9947;57.722;12.012;2023-04-03T01:05:22;4.67;;;3.00;;
19599;SDS011;9947;57.722;12.012;2023-04-03T01:07:50;4.90;;;2.93;;
19599;SDS011;9947;57.722;12.012;2023-04-03T01:10:19;4.30;;;2.90;;
19599;SDS011;9947;57.722;12.012;2023-04-03T01:12:48;3.63;;;3.00;;
19599;SDS011;9947;57.722;12.012;2023-04-03T01:15:18;5.43;;;3.10;;
19599;SDS011;9947;57.722;12.012;2023-04-03T01:17:48;3.30;;;2.70;;
19599;SDS011;9947;57.722;12.012;2023-04-03T01:20:40;3.30;;;2.70;;
19599;SDS011;9947;57.722;12.012;2023-04-03T01:23:40;7.23;;;3.27;;
19599;SDS011;9947;57.722;12.012;2023-04-03T01:26:19;10.07;;;3.67;;
19599;SDS011;9947;57.722;12.012;2023-04-03T01:28:46;3.77;;;2.80;;
19599;SDS011;9947;57.722;12.012;2023-04-03T01:31:18;5.93;;;2.80;;
19599;SDS011;9947;57.722;12.012;2023-04-03T01:33:50;5.33;;;3.50;;
19599;SDS011;9947;57.722;12.012;2023-04-03T01:36:17;3.87;;;2.80;;
19599;SDS011;9947;57.722;12.012;2023-04-03T01:38:47;4.40;;;3.23;;
19599;SDS011;9947;57.722;12.012;2023-04-03T01:41:15;5.43;;;3.17;;
19599;SDS011;9947;57.722;12.012;2023-04-03T01:43:42;5.77;;;3.03;;
19599;SDS011;9947;57.722;12.012;2023-04-03T01:46:09;4.57;;;3.37;;
19599;SDS011;9947;57.722;12.012;2023-04-03T01:48:36;7.10;;;3.63;;
19599;SDS011;9947;57.722;12.012;2023-04-03T01:51:04;3.30;;;3.00;;
19599;SDS011;9947;57.722;12.012;2023-04-03T01:53:32;7.53;;;3.20;;
19599;SDS011;9947;57.722;12.012;2023-04-03T01:55:59;3.60;;;3.30;;
19599;SDS011;9947;57.722;12.012;2023-04-03T01:58:26;3.10;;;2.77;;
19599;SDS011;9947;57.722;12.012;2023-04-03T02:00:55;5.03;;;3.20;;
19599;SDS011;9947;57.722;12.012;2023-04-03T02:03:22;3.83;;;3.00;;
19599;SDS011;9947;57.722;12.012;2023-04-03T02:05:49;3.57;;;3.13;;
19599;SDS011;9947;57.722;12.012;2023-04-03T02:08:17;5.83;;;2.67;;
19599;SDS011;9947;57.722;12.012;2023-04-03T02:10:46;4.77;;;3.17;;
19599;SDS011;9947;57.722;12.012;2023-04-03T02:13:14;4.27;;;3.13;;
19599;SDS011;9947;57.722;12.012;2023-04-03T02:15:40;6.60;;;3.73;;
19599;SDS011;9947;57.722;12.012;2023-04-03T02:18:08;5.67;;;3.20;;
19599;SDS011;9947;57.722;12.012;2023-04-03T02:20:42;4.07;;;3.30;;
19599;SDS011;9947;57.722;12.012;2023-04-03T02:23:09;4.63;;;3.00;;
19599;SDS011;9947;57.722;12.012;2023-04-03T02:25:38;4.73;;;3.17;;
19599;SDS011;9947;57.722;12.012;2023-04-03T02:28:05;5.07;;;3.20;;
19599;SDS011;9947;57.722;12.012;2023-04-03T02:30:32;3.90;;;3.03;;
19599;SDS011;9947;57.722;12.012;2023-04-03T02:32:59;8.90;;;3.23;;
19599;SDS011;9947;57.722;12.012;2023-04-03T02:35:25;4.43;;;3.17;;
19599;SDS011;9947;57.722;12.012;2023-04-03T02:37:53;7.33;;;2.80;;
19599;SDS011;9947;57.722;12.012;2023-04-03T02:40:19;5.23;;;3.37;;
19599;SDS011;9947;57.722;12.012;2023-04-03T02:42:48;3.97;;;3.00;;
19599;SDS011;9947;57.722;12.012;2023-04-03T02:45:15;6.53;;;3.30;;
19599;SDS011;9947;57.722;12.012;2023-04-03T02:47:42;3.80;;;3.17;;
19599;SDS011;9947;57.722;12.012;2023-04-03T02:50:09;4.97;;;2.97;;
19599;SDS011;9947;57.722;12.012;2023-04-03T02:52:36;5.90;;;3.00;;
19599;SDS011;9947;57.722;12.012;2023-04-03T02:55:03;5.13;;;3.20;;
19599;SDS011;9947;57.722;12.012;2023-04-03T02:57:30;6.03;;;3.03;;
19599;SDS011;9947;57.722;12.012;2023-04-03T02:59:59;8.00;;;3.10;;
19599;SDS011;9947;57.722;12.012;2023-04-03T03:02:26;4.47;;;3.00;;
19599;SDS011;9947;57.722;12.012;2023-04-03T03:04:54;4.57;;;3.50;;
19599;SDS011;9947;57.722;12.012;2023-04-03T03:07:21;8.07;;;3.33;;
19599;SDS011;9947;57.722;12.012;2023-04-03T03:09:48;6.93;;;3.07;;
19599;SDS011;9947;57.722;12.012;2023-04-03T03:12:18;4.03;;;2.97;;
19599;SDS011;9947;57.722;12.012;2023-04-03T03:14:53;7.77;;;2.90;;
19599;SDS011;9947;57.722;12.012;2023-04-03T03:17:22;4.87;;;3.23;;
19599;SDS011;9947;57.722;12.012;2023-04-03T03:19:49;6.37;;;3.27;;
19599;SDS011;9947;57.722;12.012;2023-04-03T03:22:16;3.17;;;2.70;;
19599;SDS011;9947;57.722;12.012;2023-04-03T03:24:44;4.73;;;3.10;;
19599;SDS011;9947;57.722;12.012;2023-04-03T03:27:11;4.53;;;2.90;;
19599;SDS011;9947;57.722;12.012;2023-04-03T03:29:38;5.87;;;3.20;;
19599;SDS011;9947;57.722;12.012;2023-04-03T03:32:08;5.07;;;3.30;;
19599;SDS011;9947;57.722;12.012;2023-04-03T03:34:37;4.60;;;3.17;;
19599;SDS011;9947;57.722;12.012;2023-04-03T03:37:04;8.27;;;3.30;;
19599;SDS011;9947;57.722;12.012;2023-04-03T03:39:32;6.07;;;3.20;;
19599;SDS011;9947;57.722;12.012;2023-04-03T03:42:01;8.60;;;3.53;;
19599;SDS011;9947;57.722;12.012;2023-04-03T03:44:29;6.10;;;3.43;;
19599;SDS011;9947;57.722;12.012;2023-04-03T03:46:59;5.60;;;3.30;;
19599;SDS011;9947;57.722;12.012;2023-04-03T03:49:30;3.37;;;3.00;;
19599;SDS011;9947;57.722;12.012;2023-04-03T03:51:59;5.80;;;3.30;;
19599;SDS011;9947;57.722;12.012;2023-04-03T03:54:26;8.17;;;3.40;;
19599;SDS011;9947;57.722;12.012;2023-04-03T03:56:53;7.73;;;3.70;;
19599;SDS011;9947;57.722;12.012;2023-04-03T03:59:20;13.13;;;3.60;;
19599;SDS011;9947;57.722;12.012;2023-04-03T04:01:56;3.67;;;3.17;;
19599;SDS011;9947;57.722;12.012;2023-04-03T04:04:23;7.07;;;3.17;;
19599;SDS011;9947;57.722;12.012;2023-04-03T04:06:50;7.30;;;3.73;;
19599;SDS011;9947;57.722;12.012;2023-04-03T04:09:21;7.80;;;3.13;;
19599;SDS011;9947;57.722;12.012;2023-04-03T04:11:48;10.60;;;3.53;;
19599;SDS011;9947;57.722;12.012;2023-04-03T04:14:15;7.17;;;3.63;;
19599;SDS011;9947;57.722;12.012;2023-04-03T04:16:42;8.50;;;4.37;;
19599;SDS011;9947;57.722;12.012;2023-04-03T04:19:09;9.73;;;3.43;;
19599;SDS011;9947;57.722;12.012;2023-04-03T04:21:36;9.03;;;3.17;;
19599;SDS011;9947;57.722;12.012;2023-04-03T04:24:03;8.03;;;3.30;;
19599;SDS011;9947;57.722;12.012;2023-04-03T04:26:32;7.50;;;3.23;;
19599;SDS011;9947;57.722;12.012;2023-04-03T04:28:59;6.60;;;3.63;;
19599;SDS011;9947;57.722;12.012;2023-04-03T04:31:26;5.90;;;3.47;;
19599;SDS011;9947;57.722;12.012;2023-04-03T04:33:53;5.87;;;3.37;;
19599;SDS011;9947;57.722;12.012;2023-04-03T04:36:20;7.27;;;3.60;;
19599;SDS011;9947;57.722;12.012;2023-04-03T04:38:47;4.30;;;3.30;;
19599;SDS011;9947;57.722;12.012;2023-04-03T04:41:14;9.33;;;3.27;;
19599;SDS011;9947;57.722;12.012;2023-04-03T04:43:43;4.10;;;3.27;;
19599;SDS011;9947;57.722;12.012;2023-04-03T04:46:10;7.13;;;3.50;;
19599;SDS011;9947;57.722;12.012;2023-04-03T04:48:37;9.57;;;3.70;;
19599;SDS011;9947;57.722;12.012;2023-04-03T04:51:05;10.07;;;3.70;;
19599;SDS011;9947;57.722;12.012;2023-04-03T04:53:34;10.87;;;3.73;;
19599;SDS011;9947;57.722;12.012;2023-04-03T04:56:01;5.00;;;3.30;;
19599;SDS011;9947;57.722;12.012;2023-04-03T04:58:28;10.43;;;3.40;;
19599;SDS011;9947;57.722;12.012;2023-04-03T05:01:03;8.20;;;3.17;;
19599;SDS011;9947;57.722;12.012;2023-04-03T05:03:32;14.37;;;3.83;;
19599;SDS011;9947;57.722;12.012;2023-04-03T05:05:59;8.73;;;3.00;;
19599;SDS011;9947;57.722;12.012;2023-04-03T05:08:30;7.83;;;3.17;;
19599;SDS011;9947;57.722;12.012;2023-04-03T05:10:59;7.83;;;3.40;;
19599;SDS011;9947;57.722;12.012;2023-04-03T05:13:26;8.30;;;3.33;;
19599;SDS011;9947;57.722;12.012;2023-04-03T05:15:54;8.27;;;3.03;;
19599;SDS011;9947;57.722;12.012;2023-04-03T05:18:22;10.00;;;3.40;;
19599;SDS011;9947;57.722;12.012;2023-04-03T05:20:49;5.10;;;2.67;;
19599;SDS011;9947;57.722;12.012;2023-04-03T05:23:17;7.10;;;3.10;;
19599;SDS011;9947;57.722;12.012;2023-04-03T05:25:44;12.60;;;3.77;;
19599;SDS011;9947;57.722;12.012;2023-04-03T05:28:13;11.00;;;3.60;;
19599;SDS011;9947;57.722;12.012;2023-04-03T05:30:40;10.47;;;3.67;;
19599;SDS011;9947;57.722;12.012;2023-04-03T05:33:07;12.87;;;3.20;;
19599;SDS011;9947;57.722;12.012;2023-04-03T05:35:38;17.10;;;4.20;;
19599;SDS011;9947;57.722;12.012;2023-04-03T05:38:09;10.13;;;3.60;;
19599;SDS011;9947;57.722;12.012;2023-04-03T05:40:36;7.63;;;3.50;;
19599;SDS011;9947;57.722;12.012;2023-04-03T05:43:03;15.73;;;3.77;;
19599;SDS011;9947;57.722;12.012;2023-04-03T05:45:32;14.80;;;4.30;;
19599;SDS011;9947;57.722;12.012;2023-04-03T05:48:06;22.17;;;3.87;;
19599;SDS011;9947;57.722;12.012;2023-04-03T05:50:44;15.00;;;4.07;;
19599;SDS011;9947;57.722;12.012;2023-04-03T05:53:12;7.60;;;3.30;;
19599;SDS011;9947;57.722;12.012;2023-04-03T05:55:43;7.10;;;3.17;;
19599;SDS011;9947;57.722;12.012;2023-04-03T05:58:12;8.70;;;3.37;;
19599;SDS011;9947;57.722;12.012;2023-04-03T06:00:39;11.70;;;3.70;;
19599;SDS011;9947;57.722;12.012;2023-04-03T06:03:08;8.17;;;3.20;;
19599;SDS011;9947;57.722;12.012;2023-04-03T06:05:35;15.03;;;3.40;;
19599;SDS011;9947;57.722;12.012;2023-04-03T06:08:04;9.30;;;3.77;;
19599;SDS011;9947;57.722;12.012;2023-04-03T06:10:33;13.47;;;3.40;;
19599;SDS011;9947;57.722;12.012;2023-04-03T06:13:06;9.43;;;3.50;;
19599;SDS011;9947;57.722;12.012;2023-04-03T06:15:33;11.20;;;3.23;;
19599;SDS011;9947;57.722;12.012;2023-04-03T06:18:05;9.63;;;3.27;;
19599;SDS011;9947;57.722;12.012;2023-04-03T06:20:31;7.53;;;3.13;;
19599;SDS011;9947;57.722;12.012;2023-04-03T06:23:00;9.37;;;3.03;;
19599;SDS011;9947;57.722;12.012;2023-04-03T06:25:28;8.57;;;2.87;;
19599;SDS011;9947;57.722;12.012;2023-04-03T06:27:56;9.70;;;3.33;;
19599;SDS011;9947;57.722;12.012;2023-04-03T06:30:24;8.77;;;3.00;;
19599;SDS011;9947;57.722;12.012;2023-04-03T06:32:51;13.77;;;3.40;;
19599;SDS011;9947;57.722;12.012;2023-04-03T06:35:18;5.27;;;2.87;;
19599;SDS011;9947;57.722;12.012;2023-04-03T06:37:46;15.10;;;3.43;;
19599;SDS011;9947;57.722;12.012;2023-04-03T06:40:14;8.60;;;3.50;;
19599;SDS011;9947;57.722;12.012;2023-04-03T06:42:48;14.37;;;3.50;;
19599;SDS011;9947;57.722;12.012;2023-04-03T06:45:15;19.17;;;3.10;;
19599;SDS011;9947;57.722;12.012;2023-04-03T06:47:43;18.40;;;3.23;;
19599;SDS011;9947;57.722;12.012;2023-04-03T06:50:16;9.97;;;2.83;;
19599;SDS011;9947;57.722;12.012;2023-04-03T06:52:46;8.57;;;3.07;;
19599;SDS011;9947;57.722;12.012;2023-04-03T06:55:16;5.27;;;2.70;;
19599;SDS011;9947;57.722;12.012;2023-04-03T06:57:43;10.83;;;2.83;;
19599;SDS011;9947;57.722;12.012;2023-04-03T07:00:12;6.80;;;2.37;;
19599;SDS011;9947;57.722;12.012;2023-04-03T07:02:41;7.40;;;2.77;;
19599;SDS011;9947;57.722;12.012;2023-04-03T07:05:08;4.97;;;2.33;;
19599;SDS011;9947;57.722;12.012;2023-04-03T07:07:35;17.03;;;2.87;;
19599;SDS011;9947;57.722;12.012;2023-04-03T07:10:03;17.57;;;3.10;;
19599;SDS011;9947;57.722;12.012;2023-04-03T07:12:32;11.23;;;2.90;;
19599;SDS011;9947;57.722;12.012;2023-04-03T07:15:01;16.17;;;3.13;;
19599;SDS011;9947;57.722;12.012;2023-04-03T07:17:30;16.97;;;2.80;;
19599;SDS011;9947;57.722;12.012;2023-04-03T07:19:57;9.53;;;2.47;;
19599;SDS011;9947;57.722;12.012;2023-04-03T07:22:24;9.93;;;2.60;;
19599;SDS011;9947;57.722;12.012;2023-04-03T07:24:51;9.50;;;2.60;;
19599;SDS011;9947;57.722;12.012;2023-04-03T07:27:18;10.27;;;2.57;;
19599;SDS011;9947;57.722;12.012;2023-04-03T07:29:48;6.80;;;2.40;;
19599;SDS011;9947;57.722;12.012;2023-04-03T07:32:15;4.03;;;2.30;;
19599;SDS011;9947;57.722;12.012;2023-04-03T07:34:44;7.67;;;2.40;;
19599;SDS011;9947;57.722;12.012;2023-04-03T07:37:11;5.90;;;2.30;;
19599;SDS011;9947;57.722;12.012;2023-04-03T07:39:38;10.63;;;2.50;;
19599;SDS011;9947;57.722;12.012;2023-04-03T07:42:19;10.70;;;2.77;;
19599;SDS011;9947;57.722;12.012;2023-04-03T07:44:46;7.90;;;2.87;;
19599;SDS011;9947;57.722;12.012;2023-04-03T07:47:14;14.90;;;2.50;;
19599;SDS011;9947;57.722;12.012;2023-04-03T07:49:43;4.57;;;2.23;;
19599;SDS011;9947;57.722;12.012;2023-04-03T07:52:10;11.33;;;2.30;;
19599;SDS011;9947;57.722;12.012;2023-04-03T07:54:44;7.07;;;2.40;;
19599;SDS011;9947;57.722;12.012;2023-04-03T07:57:11;5.47;;;2.33;;
19599;SDS011;9947;57.722;12.012;2023-04-03T07:59:38;7.93;;;2.33;;
19599;SDS011;9947;57.722;12.012;2023-04-03T08:02:08;7.43;;;2.23;;
19599;SDS011;9947;57.722;12.012;2023-04-03T08:04:35;2.53;;;1.87;;
19599;SDS011;9947;57.722;12.012;2023-04-03T08:07:04;5.63;;;2.00;;
19599;SDS011;9947;57.722;12.012;2023-04-03T08:09:31;8.17;;;2.30;;
19599;SDS011;9947;57.722;12.012;2023-04-03T08:11:58;2.43;;;2.00;;
19599;SDS011;9947;57.722;12.012;2023-04-03T08:14:32;4.00;;;2.10;;
19599;SDS011;9947;57.722;12.012;2023-04-03T08:17:00;1.90;;;1.80;;
19599;SDS011;9947;57.722;12.012;2023-04-03T08:19:29;5.50;;;1.80;;
19599;SDS011;9947;57.722;12.012;2023-04-03T08:21:56;14.80;;;2.90;;
19599;SDS011;9947;57.722;12.012;2023-04-03T08:24:25;7.27;;;2.20;;
19599;SDS011;9947;57.722;12.012;2023-04-03T08:26:52;5.03;;;2.00;;
19599;SDS011;9947;57.722;12.012;2023-04-03T08:29:22;5.60;;;1.97;;
19599;SDS011;9947;57.722;12.012;2023-04-03T08:31:49;4.33;;;2.00;;
19599;SDS011;9947;57.722;12.012;2023-04-03T08:34:17;4.53;;;1.80;;
19599;SDS011;9947;57.722;12.012;2023-04-03T08:36:45;3.17;;;1.67;;
19599;SDS011;9947;57.722;12.012;2023-04-03T08:39:15;3.07;;;1.60;;
19599;SDS011;9947;57.722;12.012;2023-04-03T08:41:46;2.63;;;1.70;;
19599;SDS011;9947;57.722;12.012;2023-04-03T08:44:17;5.10;;;1.70;;
19599;SDS011;9947;57.722;12.012;2023-04-03T08:47:01;3.87;;;1.80;;
19599;SDS011;9947;57.722;12.012;2023-04-03T08:49:35;2.13;;;1.70;;
19599;SDS011;9947;57.722;12.012;2023-04-03T08:52:12;2.73;;;1.70;;
19599;SDS011;9947;57.722;12.012;2023-04-03T08:54:47;2.47;;;1.80;;
19599;SDS011;9947;57.722;12.012;2023-04-03T08:57:17;4.27;;;1.83;;
19599;SDS011;9947;57.722;12.012;2023-04-03T09:00:00;3.53;;;1.77;;
19599;SDS011;9947;57.722;12.012;2023-04-03T09:02:39;2.17;;;1.70;;
19599;SDS011;9947;57.722;12.012;2023-04-03T09:05:17;1.67;;;1.57;;
19599;SDS011;9947;57.722;12.012;2023-04-03T09:07:49;5.00;;;1.80;;
19599;SDS011;9947;57.722;12.012;2023-04-03T09:10:24;2.23;;;1.60;;
19599;SDS011;9947;57.722;12.012;2023-04-03T09:13:01;2.97;;;2.03;;
19599;SDS011;9947;57.722;12.012;2023-04-03T09:15:33;6.37;;;1.90;;
19599;SDS011;9947;57.722;12.012;2023-04-03T09:18:02;2.80;;;1.60;;
19599;SDS011;9947;57.722;12.012;2023-04-03T09:20:38;1.70;;;1.60;;
19599;SDS011;9947;57.722;12.012;2023-04-03T09:23:15;3.27;;;1.70;;
19599;SDS011;9947;57.722;12.012;2023-04-03T09:25:48;2.17;;;1.90;;
19599;SDS011;9947;57.722;12.012;2023-04-03T09:28:21;2.80;;;1.90;;
19599;SDS011;9947;57.722;12.012;2023-04-03T09:30:48;4.33;;;1.80;;
19599;SDS011;9947;57.722;12.012;2023-04-03T09:33:15;4.27;;;2.00;;
19599;SDS011;9947;57.722;12.012;2023-04-03T09:35:47;2.67;;;1.93;;
19599;SDS011;9947;57.722;12.012;2023-04-03T09:38:20;3.67;;;1.90;;
19599;SDS011;9947;57.722;12.012;2023-04-03T09:40:50;2.93;;;2.07;;
19599;SDS011;9947;57.722;12.012;2023-04-03T09:43:38;5.07;;;1.70;;
19599;SDS011;9947;57.722;12.012;2023-04-03T09:46:16;7.67;;;2.00;;
19599;SDS011;9947;57.722;12.012;2023-04-03T09:49:01;2.00;;;1.50;;
19599;SDS011;9947;57.722;12.012;2023-04-03T09:51:29;5.33;;;1.80;;
19599;SDS011;9947;57.722;12.012;2023-04-03T09:54:24;2.83;;;2.00;;
19599;SDS011;9947;57.722;12.012;2023-04-03T09:56:56;2.70;;;1.63;;
19599;SDS011;9947;57.722;12.012;2023-04-03T09:59:29;1.80;;;1.70;;
19599;SDS011;9947;57.722;12.012;2023-04-03T10:01:58;4.80;;;1.70;;
19599;SDS011;9947;57.722;12.012;2023-04-03T10:04:27;6.90;;;2.10;;
19599;SDS011;9947;57.722;12.012;2023-04-03T10:09:56;4.23;;;1.60;;
19599;SDS011;9947;57.722;12.012;2023-04-03T10:12:24;3.97;;;1.60;;
19599;SDS011;9947;57.722;12.012;2023-04-03T10:14:56;3.63;;;1.70;;
19599;SDS011;9947;57.722;12.012;2023-04-03T10:17:26;3.57;;;1.73;;
19599;SDS011;9947;57.722;12.012;2023-04-03T10:20:10;2.60;;;1.70;;
19599;SDS011;9947;57.722;12.012;2023-04-03T10:22:55;3.67;;;1.73;;
19599;SDS011;9947;57.722;12.012;2023-04-03T10:25:32;4.90;;;1.80;;
19599;SDS011;9947;57.722;12.012;2023-04-03T10:28:16;12.93;;;2.10;;
19599;SDS011;9947;57.722;12.012;2023-04-03T10:30:56;6.20;;;2.37;;
19599;SDS011;9947;57.722;12.012;2023-04-03T10:33:39;2.60;;;1.63;;
19599;SDS011;9947;57.722;12.012;2023-04-03T10:36:19;4.40;;;1.70;;
19599;SDS011;9947;57.722;12.012;2023-04-03T10:39:00;2.87;;;1.70;;
19599;SDS011;9947;57.722;12.012;2023-04-03T10:41:39;6.23;;;2.03;;
19599;SDS011;9947;57.722;12.012;2023-04-03T10:44:15;2.17;;;1.73;;
19599;SDS011;9947;57.722;12.012;2023-04-03T10:46:55;2.17;;;1.57;;
19599;SDS011;9947;57.722;12.012;2023-04-03T10:49:33;2.63;;;1.80;;
19599;SDS011;9947;57.722;12.012;2023-04-03T10:52:13;4.33;;;1.80;;
19599;SDS011;9947;57.722;12.012;2023-04-03T10:54:45;4.00;;;3.40;;
19599;SDS011;9947;57.722;12.012;2023-04-03T10:57:16;2.47;;;1.80;;
19599;SDS011;9947;57.722;12.012;2023-04-03T10:59:44;3.43;;;1.57;;
19599;SDS011;9947;57.722;12.012;2023-04-03T11:02:19;3.40;;;2.00;;
19599;SDS011;9947;57.722;12.012;2023-04-03T11:04:51;3.13;;;1.73;;
19599;SDS011;9947;57.722;12.012;2023-04-03T11:07:25;7.90;;;2.20;;
19599;SDS011;9947;57.722;12.012;2023-04-03T11:10:03;3.40;;;1.87;;
19599;SDS011;9947;57.722;12.012;2023-04-03T11:12:40;9.70;;;1.97;;
19599;SDS011;9947;57.722;12.012;2023-04-03T11:15:11;3.33;;;1.80;;
19599;SDS011;9947;57.722;12.012;2023-04-03T11:17:43;3.10;;;1.63;;
19599;SDS011;9947;57.722;12.012;2023-04-03T11:20:17;7.17;;;1.70;;
19599;SDS011;9947;57.722;12.012;2023-04-03T11:22:47;6.80;;;1.73;;
19599;SDS011;9947;57.722;12.012;2023-04-03T11:25:19;5.17;;;2.20;;
19599;SDS011;9947;57.722;12.012;2023-04-03T11:27:55;2.00;;;1.60;;
19599;SDS011;9947;57.722;12.012;2023-04-03T11:30:25;1.93;;;1.70;;
19599;SDS011;9947;57.722;12.012;2023-04-03T11:33:05;4.73;;;1.80;;
19599;SDS011;9947;57.722;12.012;2023-04-03T11:35:47;3.13;;;1.90;;
19599;SDS011;9947;57.722;12.012;2023-04-03T11:38:19;9.57;;;2.30;;
19599;SDS011;9947;57.722;12.012;2023-04-03T11:40:51;3.93;;;1.70;;
19599;SDS011;9947;57.722;12.012;2023-04-03T11:43:24;4.83;;;2.10;;
19599;SDS011;9947;57.722;12.012;2023-04-03T11:45:53;7.87;;;2.30;;
19599;SDS011;9947;57.722;12.012;2023-04-03T12:03:54;5.27;;;2.10;;
19599;SDS011;9947;57.722;12.012;2023-04-03T12:12:29;17.53;;;5.30;;
19599;SDS011;9947;57.722;12.012;2023-04-03T12:15:21;6.27;;;2.40;;
19599;SDS011;9947;57.722;12.012;2023-04-03T12:17:51;8.27;;;2.40;;
19599;SDS011;9947;57.722;12.012;2023-04-03T12:23:29;3.60;;;1.70;;
19599;SDS011;9947;57.722;12.012;2023-04-03T12:26:18;1.70;;;1.60;;
19599;SDS011;9947;57.722;12.012;2023-04-03T12:28:48;7.57;;;1.80;;
19599;SDS011;9947;57.722;12.012;2023-04-03T12:31:19;21.93;;;6.00;;
19599;SDS011;9947;57.722;12.012;2023-04-03T12:33:57;14.10;;;3.70;;
19599;SDS011;9947;57.722;12.012;2023-04-03T12:36:36;6.13;;;2.43;;
19599;SDS011;9947;57.722;12.012;2023-04-03T12:39:16;7.60;;;3.10;;
19599;SDS011;9947;57.722;12.012;2023-04-03T12:41:53;4.97;;;2.03;;
19599;SDS011;9947;57.722;12.012;2023-04-03T12:44:36;13.20;;;3.87;;
19599;SDS011;9947;57.722;12.012;2023-04-03T12:47:22;5.87;;;2.70;;
19599;SDS011;9947;57.722;12.012;2023-04-03T12:50:04;5.57;;;2.20;;
19599;SDS011;9947;57.722;12.012;2023-04-03T12:52:47;9.80;;;3.30;;
19599;SDS011;9947;57.722;12.012;2023-04-03T12:55:19;4.23;;;1.80;;
19599;SDS011;9947;57.722;12.012;2023-04-03T12:57:47;4.60;;;2.50;;
19599;SDS011;9947;57.722;12.012;2023-04-03T13:00:22;5.30;;;2.10;;
19599;SDS011;9947;57.722;12.012;2023-04-03T13:03:00;2.37;;;1.77;;
19599;SDS011;9947;57.722;12.012;2023-04-03T13:05:29;11.97;;;4.07;;
19599;SDS011;9947;57.722;12.012;2023-04-03T13:07:59;4.50;;;1.87;;
19599;SDS011;9947;57.722;12.012;2023-04-03T13:10:28;3.83;;;2.10;;
19599;SDS011;9947;57.722;12.012;2023-04-03T13:13:07;6.20;;;2.10;;
19599;SDS011;9947;57.722;12.012;2023-04-03T13:15:45;2.33;;;1.77;;
19599;SDS011;9947;57.722;12.012;2023-04-03T13:18:30;5.63;;;1.80;;
19599;SDS011;9947;57.722;12.012;2023-04-03T13:21:00;3.73;;;2.37;;
19599;SDS011;9947;57.722;12.012;2023-04-03T13:23:31;4.97;;;1.90;;
19599;SDS011;9947;57.722;12.012;2023-04-03T13:26:01;4.53;;;2.10;;
19599;SDS011;9947;57.722;12.012;2023-04-03T13:28:29;3.07;;;1.87;;
19599;SDS011;9947;57.722;12.012;2023-04-03T13:31:04;6.33;;;1.90;;
19599;SDS011;9947;57.722;12.012;2023-04-03T13:33:35;13.60;;;2.50;;
19599;SDS011;9947;57.722;12.012;2023-04-03T13:36:05;8.30;;;1.87;;
19599;SDS011;9947;57.722;12.012;2023-04-03T13:38:36;3.10;;;1.90;;
19599;SDS011;9947;57.722;12.012;2023-04-03T13:41:04;5.53;;;1.70;;
19599;SDS011;9947;57.722;12.012;2023-04-03T13:43:53;3.17;;;2.27;;
19599;SDS011;9947;57.722;12.012;2023-04-03T13:46:24;6.33;;;2.00;;
19599;SDS011;9947;57.722;12.012;2023-04-03T13:48:53;3.63;;;1.77;;
19599;SDS011;9947;57.722;12.012;2023-04-03T13:51:23;9.37;;;1.87;;
19599;SDS011;9947;57.722;12.012;2023-04-03T13:53:54;3.70;;;2.03;;
19599;SDS011;9947;57.722;12.012;2023-04-03T13:56:24;8.30;;;1.83;;
19599;SDS011;9947;57.722;12.012;2023-04-03T13:58:57;8.57;;;2.17;;
19599;SDS011;9947;57.722;12.012;2023-04-03T14:01:34;7.37;;;1.87;;
19599;SDS011;9947;57.722;12.012;2023-04-03T14:04:12;9.77;;;2.33;;
19599;SDS011;9947;57.722;12.012;2023-04-03T14:06:42;6.77;;;2.10;;
19599;SDS011;9947;57.722;12.012;2023-04-03T14:09:23;3.87;;;2.00;;
19599;SDS011;9947;57.722;12.012;2023-04-03T14:11:53;2.63;;;1.53;;
19599;SDS011;9947;57.722;12.012;2023-04-03T14:14:23;2.10;;;1.60;;
19599;SDS011;9947;57.722;12.012;2023-04-03T14:16:55;6.20;;;1.90;;
19599;SDS011;9947;57.722;12.012;2023-04-03T14:19:25;10.23;;;1.80;;
19599;SDS011;9947;57.722;12.012;2023-04-03T14:21:54;3.53;;;2.00;;
19599;SDS011;9947;57.722;12.012;2023-04-03T14:24:26;2.40;;;1.83;;
19599;SDS011;9947;57.722;12.012;2023-04-03T14:26:54;4.03;;;2.00;;
19599;SDS011;9947;57.722;12.012;2023-04-03T14:29:24;5.80;;;1.97;;
19599;SDS011;9947;57.722;12.012;2023-04-03T14:31:52;3.80;;;2.07;;
19599;SDS011;9947;57.722;12.012;2023-04-03T14:34:22;5.27;;;1.90;;
19599;SDS011;9947;57.722;12.012;2023-04-03T14:36:52;11.00;;;2.30;;
19599;SDS011;9947;57.722;12.012;2023-04-03T14:39:19;7.57;;;2.40;;
19599;SDS011;9947;57.722;12.012;2023-04-03T14:41:48;5.23;;;2.20;;
19599;SDS011;9947;57.722;12.012;2023-04-03T14:44:15;20.30;;;5.97;;
19599;SDS011;9947;57.722;12.012;2023-04-03T14:46:43;50.17;;;13.33;;
19599;SDS011;9947;57.722;12.012;2023-04-03T14:49:21;17.60;;;5.93;;
19599;SDS011;9947;57.722;12.012;2023-04-03T14:51:51;5.50;;;2.10;;
19599;SDS011;9947;57.722;12.012;2023-04-03T14:54:19;2.03;;;1.80;;
19599;SDS011;9947;57.722;12.012;2023-04-03T14:56:52;3.23;;;1.90;;
19599;SDS011;9947;57.722;12.012;2023-04-03T14:59:19;4.27;;;1.90;;
19599;SDS011;9947;57.722;12.012;2023-04-03T15:01:52;8.63;;;1.93;;
19599;SDS011;9947;57.722;12.012;2023-04-03T15:04:20;3.53;;;2.17;;
19599;SDS011;9947;57.722;12.012;2023-04-03T15:06:50;6.87;;;1.97;;
19599;SDS011;9947;57.722;12.012;2023-04-03T15:09:19;6.73;;;2.10;;
19599;SDS011;9947;57.722;12.012;2023-04-03T15:11:47;7.23;;;2.00;;
19599;SDS011;9947;57.722;12.012;2023-04-03T15:14:16;53.10;;;14.33;;
19599;SDS011;9947;57.722;12.012;2023-04-03T15:16:43;38.67;;;10.60;;
19599;SDS011;9947;57.722;12.012;2023-04-03T15:19:11;37.33;;;10.87;;
19599;SDS011;9947;57.722;12.012;2023-04-03T15:21:38;14.70;;;3.67;;
19599;SDS011;9947;57.722;12.012;2023-04-03T15:24:05;43.77;;;11.20;;
19599;SDS011;9947;57.722;12.012;2023-04-03T15:26:32;60.57;;;16.67;;
19599;SDS011;9947;57.722;12.012;2023-04-03T15:29:00;23.57;;;6.83;;
19599;SDS011;9947;57.722;12.012;2023-04-03T15:31:28;33.57;;;7.87;;
19599;SDS011;9947;57.722;12.012;2023-04-03T15:33:55;13.80;;;4.87;;